createdAt,value
2019-03-03T00:00:48.182Z,8.35
2019-03-03T00:03:17.186Z,8.90
2019-03-03T00:05:49.424Z,6.95
2019-03-03T00:08:18.628Z,8.03
2019-03-03T00:10:47.792Z,6.85
2019-03-03T00:13:16.798Z,8.35
2019-03-03T00:15:45.807Z,8.18
2019-03-03T00:18:14.813Z,6.62
2019-03-03T00:20:43.965Z,9.98
2019-03-03T00:23:12.884Z,7.37
2019-03-03T00:26:00.920Z,9.23
2019-03-03T00:28:29.888Z,5.05
2019-03-03T00:30:58.887Z,7.42
2019-03-03T00:33:28.229Z,5.17
2019-03-03T00:35:57.152Z,5.80
2019-03-03T00:38:51.037Z,7.50
2019-03-03T00:41:37.820Z,7.12
2019-03-03T00:44:28.517Z,6.10
2019-03-03T00:47:31.468Z,5.95
2019-03-03T00:50:09.222Z,5.55
2019-03-03T00:52:55.853Z,5.45
2019-03-03T00:55:52.465Z,6.12
2019-03-03T00:58:39.195Z,6.17
2019-03-03T01:01:42.307Z,5.37
2019-03-03T01:04:21.887Z,4.92
2019-03-03T01:07:03.898Z,7.65
2019-03-03T01:10:06.840Z,6.65
2019-03-03T01:13:00.921Z,5.37
2019-03-03T01:16:07.235Z,6.45
2019-03-03T01:19:06.842Z,4.97
2019-03-03T01:21:41.689Z,8.40
2019-03-03T01:24:23.575Z,7.55
2019-03-03T01:26:52.634Z,4.95
2019-03-03T01:29:21.468Z,5.33
2019-03-03T01:31:50.309Z,6.67
2019-03-03T01:34:19.185Z,5.42
2019-03-03T01:36:48.068Z,6.37
2019-03-03T01:39:17.070Z,6.72
2019-03-03T01:41:46.090Z,6.53
2019-03-03T01:44:15.278Z,5.50
2019-03-03T01:46:44.315Z,7.95
2019-03-03T01:49:13.361Z,7.85
2019-03-03T01:51:42.428Z,6.10
2019-03-03T01:54:11.341Z,8.65
2019-03-03T01:56:40.360Z,5.85
2019-03-03T01:59:09.329Z,5.12
2019-03-03T02:01:38.380Z,6.80
2019-03-03T02:04:07.357Z,5.10
2019-03-03T02:06:36.242Z,7.90
2019-03-03T02:09:08.442Z,6.10
2019-03-03T02:11:37.444Z,5.72
2019-03-03T02:14:06.466Z,6.35
2019-03-03T02:16:35.579Z,6.17
2019-03-03T02:19:04.457Z,7.58
2019-03-03T02:21:33.313Z,6.83
2019-03-03T02:24:02.356Z,7.20
2019-03-03T02:26:31.479Z,4.47
2019-03-03T02:29:00.362Z,10.20
2019-03-03T02:31:29.356Z,6.70
2019-03-03T02:33:58.409Z,7.35
2019-03-03T02:36:27.387Z,8.20
2019-03-03T02:38:56.438Z,8.98
2019-03-03T02:41:25.335Z,7.50
2019-03-03T02:43:54.532Z,9.03
2019-03-03T02:46:23.353Z,6.20
2019-03-03T02:48:52.365Z,6.30
2019-03-03T02:51:21.513Z,7.90
2019-03-03T02:53:50.694Z,6.80
2019-03-03T02:56:19.788Z,5.95
2019-03-03T02:58:48.634Z,7.53
2019-03-03T03:01:21.817Z,6.60
2019-03-03T03:03:50.762Z,7.08
2019-03-03T03:06:41.106Z,6.72
2019-03-03T03:09:18.797Z,9.15
2019-03-03T03:12:31.594Z,6.95
2019-03-03T03:15:16.513Z,6.37
2019-03-03T03:17:56.892Z,7.37
2019-03-03T03:23:13.957Z,7.33
2019-03-03T03:25:52.701Z,6.60
2019-03-03T03:28:27.925Z,6.65
2019-03-03T03:31:05.218Z,5.33
2019-03-03T03:33:52.995Z,5.15
2019-03-03T03:36:43.945Z,4.37
2019-03-03T03:39:27.249Z,5.25
2019-03-03T03:42:14.985Z,5.25
2019-03-03T03:44:52.730Z,4.72
2019-03-03T03:47:35.802Z,7.83
2019-03-03T03:50:12.271Z,5.30
2019-03-03T03:52:58.295Z,7.53
2019-03-03T03:55:38.299Z,5.28
2019-03-03T03:58:28.958Z,5.50
2019-03-03T04:01:34.790Z,4.92
2019-03-03T04:04:28.120Z,4.85
2019-03-03T04:07:14.142Z,4.15
2019-03-03T04:09:57.371Z,5.37
2019-03-03T04:12:41.136Z,4.80
2019-03-03T04:15:29.082Z,5.08
2019-03-03T04:18:16.887Z,4.17
2019-03-03T04:21:10.775Z,4.62
2019-03-03T04:23:54.293Z,6.47
2019-03-03T04:26:48.118Z,5.47
2019-03-03T04:29:39.417Z,4.97
2019-03-03T04:32:19.755Z,3.17
2019-03-03T04:34:57.304Z,4.03
2019-03-03T04:37:34.368Z,4.35
2019-03-03T04:40:14.345Z,3.87
2019-03-03T04:43:14.434Z,3.75
2019-03-03T04:45:55.781Z,4.67
2019-03-03T04:48:53.074Z,6.12
2019-03-03T04:51:30.656Z,3.95
2019-03-03T04:54:09.801Z,6.58
2019-03-03T04:56:56.412Z,4.72
2019-03-03T04:59:44.219Z,4.22
2019-03-03T05:02:50.506Z,4.33
2019-03-03T05:05:32.003Z,4.95
2019-03-03T05:08:21.049Z,3.45
2019-03-03T05:11:15.047Z,3.50
2019-03-03T05:13:51.579Z,5.08
2019-03-03T05:16:37.522Z,2.55
2019-03-03T05:19:21.338Z,5.62
2019-03-03T05:21:50.543Z,3.65
2019-03-03T05:24:19.587Z,2.47
2019-03-03T05:26:48.557Z,4.85
2019-03-03T05:29:17.359Z,6.15
2019-03-03T05:31:46.619Z,3.25
2019-03-03T05:34:15.713Z,4.00
2019-03-03T05:36:44.542Z,3.58
2019-03-03T05:39:13.353Z,2.80
2019-03-03T05:41:42.252Z,2.95
2019-03-03T05:44:11.134Z,5.65
2019-03-03T05:46:40.056Z,4.92
2019-03-03T05:49:09.078Z,4.00
2019-03-03T05:51:38.143Z,5.67
2019-03-03T05:54:07.116Z,2.90
2019-03-03T05:56:36.145Z,5.10
2019-03-03T05:59:05.124Z,7.15
2019-03-03T06:01:34.068Z,4.72
2019-03-03T06:04:02.852Z,4.42
2019-03-03T06:06:31.833Z,3.98
2019-03-03T06:09:00.823Z,4.70
2019-03-03T06:11:29.853Z,3.45
2019-03-03T06:13:58.999Z,4.83
2019-03-03T06:16:27.904Z,4.75
2019-03-03T06:18:56.860Z,3.85
2019-03-03T06:21:25.917Z,4.72
2019-03-03T06:23:54.856Z,3.70
2019-03-03T06:26:24.029Z,4.83
2019-03-03T06:28:52.970Z,6.12
2019-03-03T06:31:21.949Z,2.52
2019-03-03T06:33:50.873Z,4.28
2019-03-03T06:36:19.765Z,6.10
2019-03-03T06:38:48.889Z,4.78
2019-03-03T06:41:18.327Z,3.10
2019-03-03T06:43:47.457Z,5.80
2019-03-03T06:46:16.732Z,4.17
2019-03-03T06:48:45.607Z,4.12
2019-03-03T06:51:14.477Z,4.17
2019-03-03T06:53:43.316Z,4.28
2019-03-03T06:56:12.152Z,3.90
2019-03-03T06:58:41.141Z,3.37
2019-03-03T07:01:10.141Z,5.45
2019-03-03T07:03:39.150Z,5.55
2019-03-03T07:06:08.154Z,5.08
2019-03-03T07:08:37.226Z,4.33
2019-03-03T07:11:06.177Z,4.33
2019-03-03T07:13:35.238Z,4.80
2019-03-03T07:16:04.226Z,4.55
2019-03-03T07:18:33.239Z,3.12
2019-03-03T07:21:02.232Z,4.97
2019-03-03T07:23:31.208Z,9.08
2019-03-03T07:26:00.355Z,3.30
2019-03-03T07:28:29.203Z,3.50
2019-03-03T07:30:58.071Z,5.65
2019-03-03T07:33:30.539Z,6.08
2019-03-03T07:35:59.366Z,4.58
2019-03-03T07:38:28.393Z,3.87
2019-03-03T07:40:57.308Z,5.05
2019-03-03T07:43:26.352Z,4.90
2019-03-03T07:45:55.349Z,3.52
2019-03-03T07:48:24.353Z,3.70
2019-03-03T07:50:53.479Z,3.35
2019-03-03T07:53:22.465Z,6.17
2019-03-03T07:55:51.403Z,4.78
2019-03-03T07:58:20.449Z,3.85
2019-03-03T08:00:49.458Z,4.87
2019-03-03T08:03:18.507Z,5.17
2019-03-03T08:05:47.476Z,5.12
2019-03-03T08:08:16.547Z,3.90
2019-03-03T08:10:45.572Z,4.83
2019-03-03T08:13:14.785Z,4.97
2019-03-03T08:15:43.635Z,4.90
2019-03-03T08:18:12.505Z,5.65
2019-03-03T08:20:41.460Z,4.60
2019-03-03T08:23:10.621Z,5.55
2019-03-03T08:25:39.654Z,4.87
2019-03-03T08:28:08.686Z,6.00
2019-03-03T08:30:37.676Z,3.17
2019-03-03T08:33:06.685Z,4.70
2019-03-03T08:35:35.723Z,4.10
2019-03-03T08:38:04.774Z,5.05
2019-03-03T08:40:33.733Z,4.33
2019-03-03T08:43:24.410Z,5.03
2019-03-03T08:46:12.415Z,5.28
2019-03-03T08:49:02.965Z,6.28
2019-03-03T08:54:57.832Z,4.00
2019-03-03T08:57:38.522Z,5.33
2019-03-03T09:00:26.034Z,3.87
2019-03-03T09:03:04.888Z,5.47
2019-03-03T09:05:55.908Z,2.92
2019-03-03T09:08:48.246Z,4.17
2019-03-03T09:11:44.074Z,6.15
2019-03-03T09:14:32.159Z,3.08
2019-03-03T09:17:26.309Z,2.75
2019-03-03T09:20:09.280Z,3.95
2019-03-03T09:22:49.501Z,5.62
2019-03-03T09:25:52.751Z,3.50
2019-03-03T09:28:42.578Z,4.50
2019-03-03T09:31:23.389Z,5.83
2019-03-03T09:34:11.308Z,2.90
2019-03-03T09:37:08.283Z,2.80
2019-03-03T09:39:56.129Z,2.87
2019-03-03T09:42:42.868Z,4.58
2019-03-03T09:45:34.605Z,5.90
2019-03-03T09:48:25.536Z,3.30
2019-03-03T09:51:19.552Z,6.22
2019-03-03T09:54:06.156Z,2.62
2019-03-03T09:57:06.357Z,5.05
2019-03-03T09:59:42.697Z,3.15
2019-03-03T10:02:20.137Z,3.33
2019-03-03T10:05:27.178Z,5.30
2019-03-03T10:08:20.743Z,4.25
2019-03-03T10:11:07.492Z,4.15
2019-03-03T10:13:53.896Z,2.80
2019-03-03T10:16:33.279Z,4.30
2019-03-03T10:19:19.045Z,4.25
2019-03-03T10:21:57.141Z,5.72
2019-03-03T10:24:44.991Z,4.17
2019-03-03T10:27:42.404Z,3.17
2019-03-03T10:30:30.778Z,2.00
2019-03-03T10:33:25.852Z,2.35
2019-03-03T10:36:13.802Z,3.55
2019-03-03T10:39:01.817Z,4.00
2019-03-03T10:41:55.350Z,2.90
2019-03-03T10:44:36.440Z,4.00
2019-03-03T10:47:20.461Z,2.90
2019-03-03T10:50:14.469Z,3.92
2019-03-03T10:52:53.395Z,4.00
2019-03-03T10:55:44.495Z,2.95
2019-03-03T10:58:23.501Z,2.60
2019-03-03T11:01:03.076Z,4.08
2019-03-03T11:03:57.070Z,4.75
2019-03-03T11:06:38.778Z,4.55
2019-03-03T11:09:32.645Z,3.58
2019-03-03T11:12:26.501Z,3.42
2019-03-03T11:15:19.446Z,2.77
2019-03-03T11:18:05.841Z,6.00
2019-03-03T11:21:05.638Z,4.53
2019-03-03T11:23:49.498Z,2.92
2019-03-03T11:26:29.072Z,1.98
2019-03-03T11:29:22.884Z,2.98
2019-03-03T11:32:19.776Z,1.42
2019-03-03T11:35:09.707Z,2.70
2019-03-03T11:37:52.737Z,1.70
2019-03-03T11:40:31.639Z,3.80
2019-03-03T11:43:18.445Z,1.80
2019-03-03T11:45:59.756Z,3.58
2019-03-03T11:48:46.496Z,2.27
2019-03-03T11:51:22.590Z,3.95
2019-03-03T11:54:04.201Z,4.20
2019-03-03T11:57:09.961Z,2.37
2019-03-03T12:00:01.082Z,2.35
2019-03-03T12:02:53.865Z,3.12
2019-03-03T12:05:27.790Z,2.83
2019-03-03T12:08:15.697Z,2.58
2019-03-03T12:11:06.339Z,3.17
2019-03-03T12:13:52.994Z,1.95
2019-03-03T12:16:34.926Z,3.20
2019-03-03T12:19:12.300Z,2.05
2019-03-03T12:22:02.980Z,1.70
2019-03-03T12:24:43.704Z,1.85
2019-03-03T12:27:29.968Z,1.57
2019-03-03T12:30:13.920Z,2.37
2019-03-03T12:33:07.516Z,2.25
2019-03-03T12:35:52.600Z,2.45
2019-03-03T12:38:58.634Z,1.80
2019-03-03T12:41:48.163Z,1.95
2019-03-03T12:44:39.141Z,1.87
2019-03-03T12:47:17.890Z,2.45
2019-03-03T12:49:58.514Z,3.22
2019-03-03T12:52:35.561Z,1.77
2019-03-03T12:55:21.563Z,2.50
2019-03-03T12:58:06.057Z,1.85
2019-03-03T13:00:45.971Z,1.50
2019-03-03T13:03:39.633Z,1.60
2019-03-03T13:06:13.742Z,1.20
2019-03-03T13:08:59.306Z,1.35
2019-03-03T13:11:40.091Z,1.95
2019-03-03T13:14:26.609Z,1.52
2019-03-03T13:17:29.813Z,1.42
2019-03-03T13:20:13.614Z,2.22
2019-03-03T13:23:10.396Z,1.12
2019-03-03T13:25:49.428Z,1.45
2019-03-03T13:28:41.081Z,1.20
2019-03-03T13:31:23.256Z,1.77
2019-03-03T13:34:10.253Z,2.00
2019-03-03T13:37:16.619Z,1.75
2019-03-03T13:39:55.446Z,2.98
2019-03-03T13:42:30.495Z,1.05
2019-03-03T13:44:59.538Z,1.37
2019-03-03T13:47:28.710Z,1.82
2019-03-03T13:49:57.618Z,1.75
2019-03-03T13:52:26.560Z,2.37
2019-03-03T13:54:55.608Z,2.02
2019-03-03T13:57:24.621Z,1.95
2019-03-03T13:59:53.674Z,2.02
2019-03-03T14:02:22.655Z,1.40
2019-03-03T14:04:51.648Z,1.92
2019-03-03T14:07:20.807Z,1.17
2019-03-03T14:09:50.061Z,1.30
2019-03-03T14:12:19.149Z,1.17
2019-03-03T14:14:48.378Z,1.98
2019-03-03T14:17:17.642Z,1.32
2019-03-03T14:19:46.740Z,1.42
2019-03-03T14:22:15.656Z,1.87
2019-03-03T14:24:44.756Z,1.30
2019-03-03T14:27:13.661Z,1.70
2019-03-03T14:29:42.703Z,1.50
2019-03-03T14:32:11.723Z,1.40
2019-03-03T14:34:40.751Z,2.17
2019-03-03T14:37:09.881Z,1.30
2019-03-03T14:39:39.461Z,3.47
2019-03-03T14:42:08.465Z,1.07
2019-03-03T14:44:37.329Z,1.25
2019-03-03T14:47:06.202Z,1.27
2019-03-03T14:49:35.037Z,1.20
2019-03-03T14:52:03.896Z,1.10
2019-03-03T14:54:32.811Z,1.80
2019-03-03T14:57:01.757Z,1.40
2019-03-03T14:59:30.687Z,1.25
2019-03-03T15:01:59.564Z,1.12
2019-03-03T15:04:28.797Z,1.10
2019-03-03T15:06:57.589Z,1.67
2019-03-03T15:09:26.965Z,1.42
2019-03-03T15:11:55.945Z,1.37
2019-03-03T15:14:24.986Z,1.10
2019-03-03T15:16:53.971Z,1.10
2019-03-03T15:19:22.884Z,1.12
2019-03-03T15:21:51.945Z,1.22
2019-03-03T15:24:20.785Z,0.80
2019-03-03T15:26:49.996Z,1.00
2019-03-03T15:29:18.968Z,2.22
2019-03-03T15:31:47.749Z,1.10
2019-03-03T15:34:16.621Z,1.92
2019-03-03T15:36:45.551Z,2.02
2019-03-03T15:39:14.458Z,1.32
2019-03-03T15:41:43.596Z,1.20
2019-03-03T15:44:12.591Z,1.40
2019-03-03T15:46:41.519Z,2.00
2019-03-03T15:49:10.630Z,1.30
2019-03-03T15:51:39.625Z,1.30
2019-03-03T15:54:08.648Z,1.27
2019-03-03T15:56:37.637Z,2.02
2019-03-03T15:59:06.637Z,1.90
2019-03-03T16:01:35.760Z,1.30
2019-03-03T16:04:04.633Z,1.20
2019-03-03T16:06:33.484Z,0.90
2019-03-03T16:09:04.231Z,1.15
2019-03-03T16:11:33.224Z,1.25
2019-03-03T16:14:02.293Z,1.42
2019-03-03T16:16:31.240Z,0.90
2019-03-03T16:19:00.083Z,1.55
2019-03-03T16:21:29.020Z,1.00
2019-03-03T16:23:58.062Z,1.07
2019-03-03T16:26:27.246Z,1.50
2019-03-03T16:28:56.363Z,1.17
2019-03-03T16:31:25.348Z,0.80
2019-03-03T16:33:54.326Z,1.30
2019-03-03T16:36:23.220Z,1.10
2019-03-03T16:38:52.451Z,1.87
2019-03-03T16:41:21.450Z,1.05
2019-03-03T16:43:50.479Z,1.55
2019-03-03T16:46:19.500Z,1.27
2019-03-03T16:48:48.547Z,1.30
2019-03-03T16:51:17.387Z,1.55
2019-03-03T16:53:46.219Z,1.00
2019-03-03T16:56:15.231Z,1.02
2019-03-03T16:58:44.236Z,1.30
2019-03-03T17:01:13.596Z,1.42
2019-03-03T17:03:42.488Z,0.88
2019-03-03T17:06:11.392Z,1.30
2019-03-03T17:08:40.398Z,1.20
2019-03-03T17:11:09.401Z,1.37
2019-03-03T17:13:38.630Z,1.15
2019-03-03T17:16:26.510Z,1.37
2019-03-03T17:18:55.612Z,1.75
2019-03-03T17:21:24.585Z,1.00
2019-03-03T17:23:53.373Z,1.22
2019-03-03T17:26:22.237Z,1.30
2019-03-03T17:28:51.160Z,1.07
2019-03-03T17:31:20.066Z,1.05
2019-03-03T17:34:12.942Z,1.95
2019-03-03T17:36:38.677Z,1.80
2019-03-03T17:39:07.578Z,1.40
2019-03-03T17:41:36.805Z,1.37
2019-03-03T17:44:24.894Z,1.52
2019-03-03T17:46:53.810Z,2.00
2019-03-03T17:49:22.901Z,1.85
2019-03-03T17:51:51.874Z,1.37
2019-03-03T17:54:20.786Z,2.37
2019-03-03T17:56:49.590Z,1.87
2019-03-03T17:59:18.672Z,1.20
2019-03-03T18:01:47.618Z,1.30
2019-03-03T18:04:16.646Z,1.45
2019-03-03T18:06:45.715Z,1.82
2019-03-03T18:09:14.648Z,1.55
2019-03-03T18:11:43.661Z,2.42
2019-03-03T18:14:12.801Z,1.50
2019-03-03T18:16:41.933Z,1.42
2019-03-03T18:19:10.966Z,1.67
2019-03-03T18:21:39.933Z,2.50
2019-03-03T18:24:09.010Z,1.20
2019-03-03T18:26:38.117Z,2.83
2019-03-03T18:29:07.069Z,1.10
2019-03-03T18:31:36.093Z,1.80
2019-03-03T18:34:05.150Z,2.05
2019-03-03T18:36:34.079Z,1.50
2019-03-03T18:39:03.347Z,1.85
2019-03-03T18:41:32.189Z,1.80
2019-03-03T18:44:01.864Z,2.00
2019-03-03T18:46:30.859Z,1.52
2019-03-03T18:48:59.865Z,1.85
2019-03-03T18:51:28.776Z,2.35
2019-03-03T18:53:57.692Z,1.60
2019-03-03T18:56:26.664Z,2.95
2019-03-03T18:58:55.802Z,2.20
2019-03-03T19:01:24.846Z,2.42
2019-03-03T19:03:53.785Z,2.72
2019-03-03T19:06:22.731Z,4.75
2019-03-03T19:08:51.781Z,2.55
2019-03-03T19:11:20.746Z,2.98
2019-03-03T19:13:49.754Z,3.47
2019-03-03T19:16:18.782Z,2.92
2019-03-03T19:19:08.588Z,2.47
2019-03-03T19:21:37.437Z,3.95
2019-03-03T19:24:06.365Z,3.00
2019-03-03T19:26:35.403Z,2.52
2019-03-03T19:29:04.745Z,1.90
2019-03-03T19:31:33.824Z,2.73
2019-03-03T19:34:04.223Z,2.85
2019-03-03T19:39:01.409Z,2.27
2019-03-03T19:41:30.451Z,2.02
2019-03-03T19:43:59.439Z,3.00
2019-03-03T19:46:28.486Z,3.67
2019-03-03T19:48:57.552Z,3.25
2019-03-03T19:51:26.453Z,3.85
2019-03-03T19:53:55.324Z,2.45
2019-03-03T19:56:24.571Z,3.37
2019-03-03T19:58:53.585Z,3.83
2019-03-03T20:01:22.650Z,3.37
2019-03-03T20:03:51.656Z,3.47
2019-03-03T20:06:20.666Z,4.15
2019-03-03T20:08:49.593Z,2.77
2019-03-03T20:11:18.608Z,3.30
2019-03-03T20:13:47.461Z,2.35
2019-03-03T20:16:16.648Z,4.72
2019-03-03T20:18:45.473Z,2.08
2019-03-03T20:21:14.716Z,2.77
2019-03-03T20:23:43.729Z,3.15
2019-03-03T20:26:12.736Z,3.85
2019-03-03T20:28:41.741Z,2.33
2019-03-03T20:33:42.777Z,3.40
2019-03-03T20:36:11.868Z,3.13
2019-03-03T20:38:40.940Z,2.98
2019-03-03T20:41:09.957Z,2.85
2019-03-03T20:43:38.948Z,1.80
2019-03-03T20:46:07.947Z,2.55
2019-03-03T20:48:36.907Z,2.20
2019-03-03T20:51:05.937Z,3.35
2019-03-03T20:53:34.942Z,2.92
2019-03-03T20:56:03.905Z,2.42
2019-03-03T20:58:32.793Z,2.58
2019-03-03T21:01:01.796Z,1.82
2019-03-03T21:03:30.635Z,4.00
2019-03-03T21:05:59.539Z,2.20
2019-03-03T21:08:28.664Z,3.90
2019-03-03T21:10:57.783Z,5.25
2019-03-03T21:13:27.095Z,4.75
2019-03-03T21:15:57.954Z,3.52
2019-03-03T21:18:26.936Z,2.83
2019-03-03T21:20:56.083Z,5.45
2019-03-03T21:23:25.127Z,4.28
2019-03-03T21:25:54.338Z,3.87
2019-03-03T21:28:23.150Z,4.62
2019-03-03T21:30:52.105Z,4.47
2019-03-03T21:33:21.070Z,3.58
2019-03-03T21:35:50.196Z,3.58
2019-03-03T21:38:19.189Z,4.42
2019-03-03T21:40:48.115Z,2.83
2019-03-03T21:43:17.272Z,2.37
2019-03-03T21:45:46.238Z,2.58
2019-03-03T21:48:15.623Z,4.00
2019-03-03T21:50:44.645Z,1.87
2019-03-03T21:53:13.689Z,4.35
2019-03-03T21:55:42.666Z,3.27
2019-03-03T21:58:11.702Z,4.20
2019-03-03T22:00:40.821Z,4.15
2019-03-03T22:03:09.681Z,5.75
2019-03-03T22:05:38.698Z,3.27
2019-03-03T22:08:07.766Z,3.80
2019-03-03T22:10:36.776Z,2.62
2019-03-03T22:13:10.675Z,2.62
2019-03-03T22:15:39.665Z,4.05
2019-03-03T22:18:08.586Z,4.08
2019-03-03T22:20:37.510Z,2.60
2019-03-03T22:23:06.533Z,4.40
2019-03-03T22:25:35.370Z,2.83
2019-03-03T22:28:04.352Z,3.10
2019-03-03T22:30:33.350Z,3.45
2019-03-03T22:33:02.252Z,3.52
2019-03-03T22:35:31.232Z,2.17
2019-03-03T22:38:00.164Z,3.83
2019-03-03T22:40:29.354Z,3.47
2019-03-03T22:42:58.308Z,3.62
2019-03-03T22:45:27.211Z,3.00
2019-03-03T22:47:56.086Z,2.77
2019-03-03T22:50:25.031Z,2.33
2019-03-03T22:52:54.056Z,2.60
2019-03-03T22:55:23.053Z,4.62
2019-03-03T22:57:52.132Z,3.72
2019-03-03T23:00:48.299Z,2.95
2019-03-03T23:03:23.985Z,3.10
2019-03-03T23:06:33.418Z,2.80
2019-03-03T23:09:40.776Z,2.58
2019-03-03T23:12:42.345Z,3.02
2019-03-03T23:15:21.897Z,4.37
2019-03-03T23:18:45.599Z,3.12
2019-03-03T23:21:32.043Z,1.87
2019-03-03T23:24:57.486Z,3.80
2019-03-03T23:27:26.503Z,6.62
2019-03-03T23:30:01.275Z,2.25
2019-03-03T23:32:30.158Z,2.27
2019-03-03T23:34:58.876Z,2.20
2019-03-03T23:37:27.779Z,3.10
2019-03-03T23:39:56.792Z,4.28
2019-03-03T23:42:25.705Z,3.37
2019-03-03T23:44:54.637Z,3.17
2019-03-03T23:47:23.551Z,2.08
2019-03-03T23:49:52.973Z,2.77
2019-03-03T23:52:21.837Z,3.53
2019-03-03T23:54:50.864Z,3.00
2019-03-03T23:57:19.985Z,2.58
2019-03-03T23:59:48.929Z,2.12
